createdAt,value
2022-11-07T00:01:16.295Z,11.90
2022-11-07T00:03:45.401Z,12.00
2022-11-07T00:06:13.126Z,12.00
2022-11-07T00:08:40.916Z,12.10
2022-11-07T00:11:08.983Z,12.10
2022-11-07T00:13:36.683Z,12.20
2022-11-07T00:16:06.939Z,12.30
2022-11-07T00:18:35.227Z,12.30
2022-11-07T00:21:05.975Z,12.40
2022-11-07T00:23:33.771Z,12.40
2022-11-07T00:26:03.127Z,12.50
2022-11-07T00:28:33.728Z,12.60
2022-11-07T00:31:01.488Z,12.60
2022-11-07T00:33:29.197Z,12.70
2022-11-07T00:35:56.904Z,12.60
2022-11-07T00:38:25.959Z,12.80
2022-11-07T00:40:56.003Z,12.80
2022-11-07T00:43:23.887Z,12.80
2022-11-07T00:45:51.754Z,12.80
2022-11-07T00:48:19.735Z,12.90
2022-11-07T00:50:47.486Z,12.90
2022-11-07T00:53:15.744Z,12.90
2022-11-07T00:55:45.019Z,12.90
2022-11-07T00:58:14.423Z,12.90
2022-11-07T01:00:42.620Z,13.00
2022-11-07T01:03:24.261Z,13.00
2022-11-07T01:06:00.307Z,12.90
2022-11-07T01:08:28.721Z,13.00
2022-11-07T01:10:58.411Z,13.10
2022-11-07T01:13:26.748Z,13.10
2022-11-07T01:15:54.464Z,13.10
2022-11-07T01:18:22.228Z,13.20
2022-11-07T01:20:50.425Z,13.20
2022-11-07T01:23:18.793Z,13.20
2022-11-07T01:25:46.708Z,13.20
2022-11-07T01:28:16.318Z,13.20
2022-11-07T01:30:45.427Z,13.20
2022-11-07T01:33:14.134Z,13.20
2022-11-07T01:35:42.185Z,13.20
2022-11-07T01:38:09.914Z,13.20
2022-11-07T01:40:57.655Z,13.30
2022-11-07T01:43:42.172Z,13.30
2022-11-07T01:46:09.880Z,13.30
2022-11-07T01:48:38.036Z,13.30
2022-11-07T01:51:05.979Z,13.30
2022-11-07T01:53:36.436Z,13.30
2022-11-07T01:56:04.960Z,13.30
2022-11-07T01:58:34.006Z,13.30
2022-11-07T02:01:02.244Z,13.30
2022-11-07T02:03:31.297Z,13.40
2022-11-07T02:06:04.804Z,13.40
2022-11-07T02:08:35.259Z,13.40
2022-11-07T02:11:04.615Z,13.50
2022-11-07T02:13:34.213Z,13.40
2022-11-07T02:16:04.153Z,13.50
2022-11-07T02:18:35.007Z,13.50
2022-11-07T02:21:09.277Z,13.50
2022-11-07T02:23:42.847Z,13.60
2022-11-07T02:26:12.367Z,13.60
2022-11-07T02:28:41.694Z,13.60
2022-11-07T02:31:09.388Z,13.60
2022-11-07T02:33:37.103Z,13.60
2022-11-07T02:36:05.119Z,13.60
2022-11-07T02:38:35.222Z,13.50
2022-11-07T02:41:06.158Z,13.60
2022-11-07T02:43:39.347Z,13.60
2022-11-07T02:46:11.070Z,13.60
2022-11-07T02:48:43.528Z,13.60
2022-11-07T02:51:11.432Z,13.60
2022-11-07T02:53:39.115Z,13.60
2022-11-07T02:56:07.571Z,13.60
2022-11-07T02:58:37.062Z,13.60
2022-11-07T03:01:07.722Z,13.60
2022-11-07T03:03:36.587Z,13.60
2022-11-07T03:06:04.455Z,13.60
2022-11-07T03:08:32.276Z,13.60
2022-11-07T03:11:00.474Z,13.60
2022-11-07T03:13:28.471Z,13.60
2022-11-07T03:15:57.675Z,13.60
2022-11-07T03:18:25.572Z,13.70
2022-11-07T03:20:53.296Z,13.70
2022-11-07T03:23:20.983Z,13.60
2022-11-07T03:25:48.704Z,13.60
2022-11-07T03:28:16.395Z,13.60
2022-11-07T03:30:44.097Z,13.60
2022-11-07T03:33:13.490Z,13.60
2022-11-07T03:35:42.409Z,13.60
2022-11-07T03:38:10.764Z,13.60
2022-11-07T03:40:38.650Z,13.60
2022-11-07T03:43:06.336Z,13.60
2022-11-07T03:45:34.013Z,13.60
2022-11-07T03:48:01.704Z,13.60
2022-11-07T03:50:30.780Z,13.60
2022-11-07T03:52:58.457Z,13.70
2022-11-07T03:55:26.116Z,13.70
2022-11-07T03:57:53.844Z,13.60
2022-11-07T04:00:22.163Z,13.60
2022-11-07T04:02:49.992Z,13.60
2022-11-07T04:05:17.900Z,13.60
2022-11-07T04:07:46.913Z,13.60
2022-11-07T04:10:14.592Z,13.60
2022-11-07T04:12:56.307Z,13.50
2022-11-07T04:15:37.949Z,13.50
2022-11-07T04:18:05.767Z,13.50
2022-11-07T04:20:33.444Z,13.40
2022-11-07T04:23:02.449Z,13.30
2022-11-07T04:25:44.106Z,13.30
2022-11-07T04:28:11.931Z,13.30
2022-11-07T04:30:39.580Z,13.20
2022-11-07T04:33:07.364Z,13.20
2022-11-07T04:35:35.032Z,13.30
2022-11-07T04:38:04.060Z,13.30
2022-11-07T04:40:31.929Z,13.30
2022-11-07T04:42:59.623Z,13.30
2022-11-07T04:45:27.335Z,13.40
2022-11-07T04:47:55.163Z,13.40
2022-11-07T04:50:22.860Z,13.40
2022-11-07T04:52:50.535Z,13.50
2022-11-07T04:55:22.788Z,13.40
2022-11-07T04:57:50.556Z,13.40
2022-11-07T05:00:20.239Z,13.50
2022-11-07T05:02:48.531Z,13.50
2022-11-07T05:05:17.037Z,13.50
2022-11-07T05:07:45.383Z,13.50
2022-11-07T05:10:18.555Z,13.50
2022-11-07T05:12:47.695Z,13.50
2022-11-07T05:15:15.735Z,13.60
2022-11-07T05:17:43.492Z,13.60
2022-11-07T05:20:26.284Z,13.70
2022-11-07T05:23:07.953Z,13.70
2022-11-07T05:25:35.614Z,13.70
2022-11-07T05:28:04.767Z,13.70
2022-11-07T05:30:32.443Z,13.70
2022-11-07T05:33:00.099Z,13.70
2022-11-07T05:35:28.103Z,13.70
2022-11-07T05:37:55.829Z,13.80
2022-11-07T05:40:23.463Z,13.80
2022-11-07T05:42:51.182Z,13.80
2022-11-07T05:45:20.230Z,13.80
2022-11-07T05:47:47.972Z,13.80
2022-11-07T05:50:15.775Z,13.70
2022-11-07T05:52:43.470Z,13.70
2022-11-07T05:55:11.175Z,13.70
2022-11-07T05:57:38.877Z,13.70
2022-11-07T06:00:07.775Z,13.70
2022-11-07T06:03:02.363Z,13.60
2022-11-07T06:05:30.563Z,13.70
2022-11-07T06:08:00.670Z,13.60
2022-11-07T06:10:28.386Z,13.60
2022-11-07T06:13:00.417Z,13.60
2022-11-07T06:15:29.460Z,13.50
2022-11-07T06:17:59.524Z,13.60
2022-11-07T06:20:28.930Z,13.60
2022-11-07T06:22:58.576Z,13.60
2022-11-07T06:25:26.832Z,13.60
2022-11-07T06:27:54.579Z,13.60
2022-11-07T06:30:22.295Z,13.70
2022-11-07T06:32:49.964Z,13.60
2022-11-07T06:35:17.766Z,13.70
2022-11-07T06:37:46.901Z,13.70
2022-11-07T06:40:14.662Z,13.70
2022-11-07T06:42:42.336Z,13.80
2022-11-07T06:45:11.356Z,13.70
2022-11-07T06:47:39.373Z,13.70
2022-11-07T06:50:07.863Z,13.70
2022-11-07T06:52:35.604Z,13.70
2022-11-07T06:55:04.879Z,13.70
2022-11-07T06:57:32.619Z,13.80
2022-11-07T07:00:00.369Z,13.70
2022-11-07T07:02:52.382Z,13.70
2022-11-07T07:05:20.760Z,13.70
2022-11-07T07:07:52.911Z,13.70
2022-11-07T07:10:22.125Z,13.70
2022-11-07T07:12:49.898Z,13.70
2022-11-07T07:15:17.675Z,13.70
2022-11-07T07:17:49.367Z,13.70
2022-11-07T07:20:17.271Z,13.70
2022-11-07T07:22:48.251Z,13.80
2022-11-07T07:25:19.488Z,13.80
2022-11-07T07:27:48.554Z,13.80
2022-11-07T07:30:16.539Z,13.80
2022-11-07T07:32:45.064Z,13.90
2022-11-07T07:35:12.708Z,14.00
2022-11-07T07:37:40.568Z,14.20
2022-11-07T07:40:10.628Z,14.50
2022-11-07T07:42:43.032Z,14.80
2022-11-07T07:45:14.360Z,15.10
2022-11-07T07:47:42.628Z,15.40
2022-11-07T07:50:13.140Z,15.40
2022-11-07T07:52:41.244Z,15.50
2022-11-07T07:55:11.265Z,15.30
2022-11-07T07:57:40.323Z,15.20
2022-11-07T08:00:09.042Z,15.10
2022-11-07T08:03:04.270Z,15.10
2022-11-07T08:05:32.021Z,15.00
2022-11-07T08:07:59.731Z,14.90
2022-11-07T08:10:41.330Z,14.90
2022-11-07T08:13:10.118Z,14.80
2022-11-07T08:15:37.885Z,14.70
2022-11-07T08:18:07.361Z,14.60
2022-11-07T08:20:35.054Z,14.60
2022-11-07T08:23:04.113Z,14.80
2022-11-07T08:25:32.717Z,14.80
2022-11-07T08:28:01.349Z,14.80
2022-11-07T08:30:31.538Z,15.00
2022-11-07T08:33:00.818Z,15.20
2022-11-07T08:35:29.971Z,15.60
2022-11-07T08:37:58.293Z,15.70
2022-11-07T08:40:26.957Z,15.80
2022-11-07T08:43:05.454Z,15.80
2022-11-07T08:45:36.790Z,15.80
2022-11-07T08:48:04.999Z,16.00
2022-11-07T08:50:34.399Z,16.10
2022-11-07T08:53:14.584Z,16.40
2022-11-07T08:55:42.313Z,16.80
2022-11-07T08:58:10.040Z,17.00
2022-11-07T09:00:37.788Z,16.90
2022-11-07T09:05:58.305Z,16.90
2022-11-07T09:08:26.142Z,16.90
2022-11-07T09:10:53.851Z,16.70
2022-11-07T09:13:21.649Z,16.50
2022-11-07T09:15:51.271Z,16.50
2022-11-07T09:18:19.800Z,16.40
2022-11-07T09:20:48.147Z,16.50
2022-11-07T09:23:17.548Z,16.40
2022-11-07T09:25:46.330Z,16.30
2022-11-07T09:28:14.490Z,16.40
2022-11-07T09:30:42.299Z,16.30
2022-11-07T09:33:10.243Z,16.20
2022-11-07T09:35:38.170Z,16.20
2022-11-07T09:38:05.979Z,15.90
2022-11-07T09:40:45.744Z,15.70
2022-11-07T09:43:29.320Z,15.70
2022-11-07T09:46:04.456Z,15.70
2022-11-07T09:48:41.317Z,15.70
2022-11-07T09:51:14.854Z,15.80
2022-11-07T09:53:46.961Z,16.00
2022-11-07T09:56:16.840Z,16.20
2022-11-07T09:58:45.960Z,16.30
2022-11-07T10:01:16.885Z,16.40
2022-11-07T10:04:10.151Z,16.30
2022-11-07T10:06:36.836Z,16.30
2022-11-07T10:09:12.877Z,16.10
2022-11-07T10:11:47.592Z,16.10
2022-11-07T10:14:24.412Z,16.50
2022-11-07T10:17:06.487Z,16.70
2022-11-07T10:19:50.113Z,16.90
2022-11-07T10:22:30.502Z,16.90
2022-11-07T10:25:11.725Z,17.20
2022-11-07T10:27:40.930Z,17.30
2022-11-07T10:30:17.362Z,17.30
2022-11-07T10:32:54.828Z,17.50
2022-11-07T10:35:29.234Z,17.50
2022-11-07T10:37:58.952Z,17.40
2022-11-07T10:40:33.471Z,17.30
2022-11-07T10:43:06.131Z,17.10
2022-11-07T10:45:34.220Z,16.80
2022-11-07T10:48:04.680Z,16.70
2022-11-07T10:50:33.123Z,16.50
2022-11-07T10:53:03.271Z,16.30
2022-11-07T10:55:42.882Z,16.20
2022-11-07T10:58:20.156Z,16.00
2022-11-07T11:01:03.240Z,15.90
2022-11-07T11:03:43.621Z,15.80
2022-11-07T11:06:23.490Z,15.90
2022-11-07T11:08:53.034Z,15.80
2022-11-07T11:11:36.927Z,15.80
2022-11-07T11:14:11.784Z,15.80
2022-11-07T11:16:41.288Z,15.90
2022-11-07T11:19:23.013Z,15.90
2022-11-07T11:21:52.740Z,16.00
2022-11-07T11:24:27.746Z,16.10
2022-11-07T11:26:58.262Z,16.10
2022-11-07T11:29:39.346Z,16.10
2022-11-07T11:32:15.813Z,16.20
2022-11-07T11:34:49.772Z,16.30
2022-11-07T11:37:21.160Z,16.30
2022-11-07T11:39:53.120Z,16.50
2022-11-07T11:42:29.073Z,16.60
2022-11-07T11:45:04.741Z,16.60
2022-11-07T11:47:38.051Z,16.70
2022-11-07T11:50:13.333Z,16.80
2022-11-07T11:52:41.372Z,16.80
2022-11-07T11:55:15.122Z,16.90
2022-11-07T11:57:50.530Z,16.90
2022-11-07T12:00:21.093Z,17.10
2022-11-07T12:03:02.868Z,17.20
2022-11-07T12:05:51.956Z,17.20
2022-11-07T12:08:39.697Z,17.30
2022-11-07T12:11:14.305Z,17.30
2022-11-07T12:13:50.536Z,17.40
2022-11-07T12:16:27.988Z,17.40
2022-11-07T12:19:03.955Z,17.30
2022-11-07T12:21:33.490Z,17.30
2022-11-07T12:24:17.719Z,17.40
2022-11-07T12:26:51.609Z,17.50
2022-11-07T12:29:27.609Z,17.60
2022-11-07T12:32:07.796Z,17.70
2022-11-07T12:34:49.640Z,17.70
2022-11-07T12:37:39.255Z,17.70
2022-11-07T12:40:20.726Z,17.70
2022-11-07T12:43:01.871Z,17.60
2022-11-07T12:45:43.685Z,17.70
2022-11-07T12:48:30.054Z,17.70
2022-11-07T12:51:07.541Z,17.40
2022-11-07T12:53:43.910Z,17.10
2022-11-07T12:56:14.852Z,17.20
2022-11-07T12:58:44.824Z,17.20
2022-11-07T13:01:14.730Z,17.20
2022-11-07T13:03:53.997Z,17.30
2022-11-07T13:06:28.188Z,17.20
2022-11-07T13:09:03.810Z,17.00
2022-11-07T13:11:39.552Z,16.90
2022-11-07T13:14:24.273Z,16.90
2022-11-07T13:17:04.620Z,16.90
2022-11-07T13:19:35.477Z,16.80
2022-11-07T13:22:05.756Z,16.80
2022-11-07T13:24:37.632Z,16.80
2022-11-07T13:27:16.728Z,16.70
2022-11-07T13:29:45.103Z,16.70
2022-11-07T13:32:14.435Z,16.70
2022-11-07T13:34:49.200Z,16.60
2022-11-07T13:37:21.993Z,16.60
2022-11-07T13:39:54.216Z,16.60
2022-11-07T13:42:24.916Z,16.50
2022-11-07T13:44:55.972Z,16.70
2022-11-07T13:47:29.556Z,16.60
2022-11-07T13:50:18.891Z,16.70
2022-11-07T13:52:55.332Z,16.80
2022-11-07T13:55:27.187Z,16.70
2022-11-07T13:57:58.635Z,16.80
2022-11-07T14:00:33.158Z,16.70
2022-11-07T14:03:01.560Z,16.70
2022-11-07T14:05:34.900Z,16.60
2022-11-07T14:08:05.881Z,16.50
2022-11-07T14:10:38.888Z,16.50
2022-11-07T14:13:10.185Z,16.50
2022-11-07T14:15:45.179Z,16.60
2022-11-07T14:18:15.950Z,16.60
2022-11-07T14:20:48.876Z,16.60
2022-11-07T14:23:17.692Z,16.60
2022-11-07T14:25:54.274Z,16.60
2022-11-07T14:28:21.984Z,16.60
2022-11-07T14:30:51.996Z,16.60
2022-11-07T14:33:21.619Z,16.60
2022-11-07T14:35:52.176Z,16.60
2022-11-07T14:38:25.277Z,16.50
2022-11-07T14:40:55.120Z,16.50
2022-11-07T14:43:25.859Z,16.40
2022-11-07T14:46:16.599Z,16.50
2022-11-07T14:48:45.764Z,16.40
2022-11-07T14:51:17.378Z,16.40
2022-11-07T14:53:52.325Z,16.40
2022-11-07T14:56:25.528Z,16.30
2022-11-07T14:58:53.872Z,16.40
2022-11-07T15:01:27.422Z,16.40
2022-11-07T15:03:57.754Z,16.30
2022-11-07T15:06:34.740Z,16.30
2022-11-07T15:09:04.679Z,16.30
2022-11-07T15:11:35.037Z,16.30
2022-11-07T15:14:04.668Z,16.30
2022-11-07T15:16:37.238Z,16.30
2022-11-07T15:19:08.529Z,16.20
2022-11-07T15:21:39.179Z,16.30
2022-11-07T15:24:26.816Z,16.20
2022-11-07T15:27:04.092Z,16.20
2022-11-07T15:29:33.553Z,16.10
2022-11-07T15:32:11.883Z,16.10
2022-11-07T15:35:00.920Z,16.00
2022-11-07T15:37:28.782Z,16.10
2022-11-07T15:39:56.697Z,16.00
2022-11-07T15:42:24.385Z,16.00
2022-11-07T15:44:52.078Z,15.90
2022-11-07T15:47:21.443Z,15.90
2022-11-07T15:49:49.478Z,15.90
2022-11-07T15:52:17.220Z,15.90
2022-11-07T15:54:46.334Z,15.90
2022-11-07T15:57:14.343Z,15.80
2022-11-07T15:59:43.487Z,15.80
2022-11-07T16:02:15.129Z,15.80
2022-11-07T16:04:43.532Z,15.80
2022-11-07T16:07:17.362Z,15.80
2022-11-07T16:09:48.457Z,15.80
2022-11-07T16:12:18.317Z,15.70
2022-11-07T16:14:46.155Z,15.60
2022-11-07T16:17:15.472Z,15.60
2022-11-07T16:19:43.239Z,15.60
2022-11-07T16:22:11.808Z,15.60
2022-11-07T16:24:39.591Z,15.50
2022-11-07T16:27:10.692Z,15.50
2022-11-07T16:29:38.475Z,15.40
2022-11-07T16:32:06.247Z,15.40
2022-11-07T16:34:33.911Z,15.40
2022-11-07T16:37:02.148Z,15.40
2022-11-07T16:39:31.496Z,15.40
2022-11-07T16:41:59.184Z,15.40
2022-11-07T16:44:28.389Z,15.30
2022-11-07T16:46:56.836Z,15.30
2022-11-07T16:49:30.530Z,15.30
2022-11-07T16:51:58.280Z,15.20
2022-11-07T16:54:26.370Z,15.20
2022-11-07T16:56:54.297Z,15.00
2022-11-07T16:59:23.832Z,14.90
2022-11-07T17:01:53.146Z,14.90
2022-11-07T17:04:20.971Z,14.90
2022-11-07T17:06:48.861Z,14.90
2022-11-07T17:09:20.181Z,14.70
2022-11-07T17:11:48.923Z,14.70
2022-11-07T17:14:16.597Z,14.70
2022-11-07T17:16:48.590Z,14.60
2022-11-07T17:19:17.634Z,14.60
2022-11-07T17:21:49.204Z,14.60
2022-11-07T17:24:17.299Z,14.60
2022-11-07T17:26:44.977Z,14.40
2022-11-07T17:29:14.040Z,14.40
2022-11-07T17:31:42.953Z,14.40
2022-11-07T17:34:11.181Z,14.40
2022-11-07T17:36:46.003Z,14.50
2022-11-07T17:39:16.182Z,14.60
2022-11-07T17:41:45.732Z,14.60
2022-11-07T17:44:13.649Z,14.60
2022-11-07T17:46:43.727Z,14.60
2022-11-07T17:49:14.503Z,14.60
2022-11-07T17:51:44.192Z,14.60
2022-11-07T17:54:13.452Z,14.60
2022-11-07T17:56:41.956Z,14.70
2022-11-07T17:59:13.889Z,14.70
2022-11-07T18:01:42.435Z,14.60
2022-11-07T18:04:13.043Z,14.50
2022-11-07T18:06:43.501Z,14.30
2022-11-07T18:09:16.134Z,14.30
2022-11-07T18:11:45.539Z,14.30
2022-11-07T18:14:14.511Z,14.20
2022-11-07T18:16:42.612Z,14.20
2022-11-07T18:19:10.991Z,14.30
2022-11-07T18:21:44.766Z,14.20
2022-11-07T18:24:13.114Z,14.10
2022-11-07T18:26:40.864Z,14.20
2022-11-07T18:29:10.253Z,14.20
2022-11-07T18:31:38.955Z,14.20
2022-11-07T18:34:08.985Z,14.20
2022-11-07T18:36:39.703Z,14.20
2022-11-07T18:39:11.724Z,14.00
2022-11-07T18:41:39.527Z,14.00
2022-11-07T18:44:07.302Z,14.00
2022-11-07T18:46:34.952Z,13.90
2022-11-07T18:49:03.184Z,13.90
2022-11-07T18:51:31.399Z,13.80
2022-11-07T18:54:01.093Z,13.80
2022-11-07T18:56:30.819Z,13.70
2022-11-07T18:58:59.138Z,13.60
2022-11-07T19:01:30.719Z,13.50
2022-11-07T19:04:00.719Z,13.30
2022-11-07T19:06:30.282Z,13.20
2022-11-07T19:08:58.713Z,13.00
2022-11-07T19:11:29.175Z,13.00
2022-11-07T19:14:01.247Z,13.00
2022-11-07T19:16:30.212Z,12.90
2022-11-07T19:18:59.758Z,12.90
2022-11-07T19:21:27.867Z,13.00
2022-11-07T19:23:55.611Z,13.00
2022-11-07T19:26:24.660Z,13.00
2022-11-07T19:28:53.833Z,13.00
2022-11-07T19:31:22.929Z,13.10
2022-11-07T19:33:50.623Z,13.00
2022-11-07T19:36:20.053Z,13.00
2022-11-07T19:38:48.661Z,13.00
2022-11-07T19:41:17.841Z,12.80
2022-11-07T19:43:49.776Z,12.80
2022-11-07T19:46:20.571Z,12.80
2022-11-07T19:48:50.496Z,12.80
2022-11-07T19:51:22.408Z,12.80
2022-11-07T19:53:54.442Z,12.80
2022-11-07T19:56:22.525Z,12.80
2022-11-07T19:58:50.344Z,12.90
2022-11-07T20:01:20.301Z,12.90
2022-11-07T20:03:51.449Z,12.80
2022-11-07T20:06:21.855Z,12.80
2022-11-07T20:08:49.996Z,12.80
2022-11-07T20:11:20.802Z,12.90
2022-11-07T20:13:49.010Z,12.80
2022-11-07T20:16:17.718Z,12.80
2022-11-07T20:18:46.153Z,12.90
2022-11-07T20:21:18.054Z,12.90
2022-11-07T20:23:47.390Z,12.90
2022-11-07T20:26:17.843Z,12.90
2022-11-07T20:28:46.370Z,12.90
2022-11-07T20:31:15.813Z,12.80
2022-11-07T20:33:43.946Z,12.80
2022-11-07T20:36:14.199Z,12.80
2022-11-07T20:38:44.607Z,12.80
2022-11-07T20:41:14.228Z,12.80
2022-11-07T20:43:43.901Z,12.70
2022-11-07T20:46:14.584Z,12.70
2022-11-07T20:48:43.386Z,12.60
2022-11-07T20:51:12.601Z,12.60
2022-11-07T20:53:45.391Z,12.60
2022-11-07T20:56:18.715Z,12.70
2022-11-07T20:58:47.279Z,12.60
2022-11-07T21:01:18.586Z,12.60
2022-11-07T21:03:46.904Z,12.70
2022-11-07T21:06:14.675Z,12.70
2022-11-07T21:08:44.314Z,12.70
2022-11-07T21:11:12.816Z,12.80
2022-11-07T21:13:45.445Z,12.90
2022-11-07T21:16:18.367Z,12.90
2022-11-07T21:18:46.403Z,13.00
2022-11-07T21:21:16.356Z,13.00
2022-11-07T21:23:44.333Z,13.00
2022-11-07T21:26:15.005Z,13.00
2022-11-07T21:28:44.259Z,12.80
2022-11-07T21:31:14.721Z,12.90
2022-11-07T21:33:42.797Z,12.80
2022-11-07T21:36:12.187Z,12.80
2022-11-07T21:38:40.216Z,12.70
2022-11-07T21:41:09.440Z,12.50
2022-11-07T21:43:38.015Z,12.50
2022-11-07T21:46:09.778Z,12.30
2022-11-07T21:48:38.469Z,12.20
2022-11-07T21:51:07.560Z,12.10
2022-11-07T21:53:38.055Z,12.00
2022-11-07T21:56:06.682Z,11.90
2022-11-07T21:58:34.441Z,11.90
2022-11-07T22:01:03.417Z,11.90
2022-11-07T22:04:03.841Z,11.80
2022-11-07T22:06:22.282Z,11.80
2022-11-07T22:08:51.924Z,11.80
2022-11-07T22:11:19.767Z,11.70
2022-11-07T22:13:47.663Z,11.70
2022-11-07T22:16:17.475Z,11.70
2022-11-07T22:18:47.356Z,11.70
2022-11-07T22:21:18.394Z,11.60
2022-11-07T22:23:46.401Z,11.50
2022-11-07T22:26:16.136Z,11.50
2022-11-07T22:28:46.091Z,11.50
2022-11-07T22:31:15.900Z,11.30
2022-11-07T22:33:43.951Z,11.30
2022-11-07T22:36:14.224Z,11.20
2022-11-07T22:38:42.726Z,11.20
2022-11-07T22:41:13.472Z,11.20
2022-11-07T22:43:41.349Z,11.20
2022-11-07T22:46:11.507Z,11.20
2022-11-07T22:48:39.516Z,11.20
2022-11-07T22:51:09.628Z,11.30
2022-11-07T22:53:39.521Z,11.30
2022-11-07T22:56:08.603Z,11.30
2022-11-07T22:58:36.480Z,11.30
2022-11-07T23:01:04.348Z,11.20
2022-11-07T23:03:32.640Z,11.10
2022-11-07T23:06:03.976Z,11.10
2022-11-07T23:08:31.964Z,11.00
2022-11-07T23:13:51.579Z,11.00
2022-11-07T23:16:20.900Z,11.00
2022-11-07T23:18:48.776Z,11.10
2022-11-07T23:21:18.159Z,11.00
2022-11-07T23:23:46.089Z,11.00
2022-11-07T23:26:17.378Z,11.00
2022-11-07T23:28:46.460Z,10.90
2022-11-07T23:31:15.125Z,10.90
2022-11-07T23:33:44.116Z,10.90
2022-11-07T23:36:13.873Z,10.80
2022-11-07T23:38:41.696Z,10.70
2022-11-07T23:41:12.371Z,10.50
2022-11-07T23:43:42.827Z,10.50
2022-11-07T23:46:26.880Z,10.50
2022-11-07T23:49:14.229Z,10.50
2022-11-07T23:51:43.533Z,10.50
2022-11-07T23:54:25.274Z,10.50
2022-11-07T23:56:53.006Z,10.40
2022-11-07T23:59:36.069Z,10.40
